createdAt,value
2022-10-23T00:00:06.318Z,16.38
2022-10-23T00:02:32.889Z,16.23
2022-10-23T00:04:59.535Z,16.80
2022-10-23T00:07:26.102Z,17.73
2022-10-23T00:09:52.722Z,20.58
2022-10-23T00:12:19.229Z,15.95
2022-10-23T00:14:45.755Z,20.17
2022-10-23T00:17:12.720Z,16.05
2022-10-23T00:19:39.185Z,19.17
2022-10-23T00:22:05.672Z,14.50
2022-10-23T00:24:32.145Z,17.10
2022-10-23T00:26:58.797Z,20.00
2022-10-23T00:29:25.836Z,18.20
2022-10-23T00:31:52.294Z,15.10
2022-10-23T00:34:19.430Z,16.02
2022-10-23T00:36:45.904Z,18.77
2022-10-23T00:39:12.556Z,14.82
2022-10-23T00:41:39.077Z,23.67
2022-10-23T00:44:17.951Z,19.05
2022-10-23T00:46:45.969Z,18.33
2022-10-23T00:51:50.261Z,19.45
2022-10-23T00:54:23.962Z,17.90
2022-10-23T00:56:53.021Z,16.75
2022-10-23T00:59:19.488Z,20.10
2022-10-23T01:01:46.099Z,18.13
2022-10-23T01:04:12.672Z,14.93
2022-10-23T01:06:48.042Z,17.58
2022-10-23T01:09:31.936Z,18.48
2022-10-23T01:12:09.364Z,20.02
2022-10-23T01:14:51.938Z,21.13
2022-10-23T01:17:20.378Z,21.67
2022-10-23T01:20:11.486Z,19.73
2022-10-23T01:22:55.078Z,17.08
2022-10-23T01:31:47.506Z,17.58
2022-10-23T01:34:17.535Z,16.98
2022-10-23T01:36:47.748Z,17.85
2022-10-23T01:39:27.891Z,17.33
2022-10-23T01:42:14.763Z,16.90
2022-10-23T01:44:48.579Z,18.15
2022-10-23T01:47:17.504Z,18.42
2022-10-23T01:49:44.767Z,18.27
2022-10-23T01:52:13.299Z,22.90
2022-10-23T01:54:43.027Z,19.02
2022-10-23T01:57:13.485Z,16.27
2022-10-23T01:59:44.618Z,16.50
2022-10-23T02:02:12.169Z,23.65
2022-10-23T02:05:02.532Z,22.02
2022-10-23T02:07:29.690Z,17.08
2022-10-23T02:09:56.237Z,17.95
2022-10-23T02:12:46.684Z,21.38
2022-10-23T02:15:17.449Z,16.60
2022-10-23T02:17:57.363Z,19.85
2022-10-23T02:20:29.047Z,21.80
2022-10-23T02:23:03.500Z,21.67
2022-10-23T02:25:41.242Z,20.75
2022-10-23T02:28:11.038Z,21.02
2022-10-23T02:30:38.808Z,21.30
2022-10-23T02:33:06.316Z,18.63
2022-10-23T02:35:33.056Z,21.08
2022-10-23T02:38:00.965Z,18.48
2022-10-23T02:40:41.248Z,19.55
2022-10-23T02:43:19.495Z,19.95
2022-10-23T02:46:04.622Z,19.55
2022-10-23T02:48:45.969Z,20.88
2022-10-23T02:51:19.265Z,19.20
2022-10-23T02:54:01.317Z,22.63
2022-10-23T02:56:37.975Z,17.67
2022-10-23T03:02:23.305Z,23.58
2022-10-23T03:04:52.088Z,22.80
2022-10-23T03:07:19.053Z,18.25
2022-10-23T03:09:45.529Z,21.98
2022-10-23T03:12:12.008Z,18.33
2022-10-23T03:14:38.582Z,22.60
2022-10-23T03:17:05.635Z,18.23
2022-10-23T03:19:32.096Z,23.70
2022-10-23T03:21:58.571Z,20.52
2022-10-23T03:24:25.159Z,20.30
2022-10-23T03:26:51.640Z,17.25
2022-10-23T03:29:18.127Z,18.98
2022-10-23T03:31:44.668Z,17.88
2022-10-23T03:34:11.594Z,16.05
2022-10-23T03:36:38.200Z,24.13
2022-10-23T03:39:05.117Z,20.30
2022-10-23T03:41:32.072Z,19.88
2022-10-23T03:43:58.628Z,18.27
2022-10-23T03:46:25.263Z,15.60
2022-10-23T03:48:51.728Z,16.85
2022-10-23T03:51:18.191Z,24.25
2022-10-23T03:53:44.683Z,18.92
2022-10-23T03:56:11.124Z,18.85
2022-10-23T03:58:37.612Z,16.80
2022-10-23T04:01:04.103Z,16.98
2022-10-23T04:03:30.640Z,14.07
2022-10-23T04:05:57.143Z,11.88
2022-10-23T04:08:23.650Z,15.73
2022-10-23T04:10:50.157Z,14.20
2022-10-23T04:13:16.660Z,17.75
2022-10-23T04:15:51.515Z,16.20
2022-10-23T04:18:18.181Z,16.73
2022-10-23T04:20:47.669Z,15.70
2022-10-23T04:23:14.147Z,12.50
2022-10-23T04:25:40.666Z,12.68
2022-10-23T04:28:07.350Z,14.52
2022-10-23T04:30:34.394Z,16.30
2022-10-23T04:33:00.869Z,12.88
2022-10-23T04:35:27.391Z,13.82
2022-10-23T04:37:54.015Z,12.68
2022-10-23T04:40:20.669Z,10.18
2022-10-23T04:42:47.136Z,13.80
2022-10-23T04:45:13.595Z,10.73
2022-10-23T04:47:40.061Z,13.68
2022-10-23T04:50:06.966Z,14.88
2022-10-23T04:52:33.453Z,11.95
2022-10-23T04:54:59.928Z,10.82
2022-10-23T04:57:26.459Z,15.10
2022-10-23T04:59:52.923Z,16.42
2022-10-23T05:02:19.457Z,11.98
2022-10-23T05:04:46.017Z,12.35
2022-10-23T05:07:12.529Z,17.60
2022-10-23T05:09:39.121Z,14.05
2022-10-23T05:12:05.766Z,11.50
2022-10-23T05:14:32.248Z,12.35
2022-10-23T05:17:13.102Z,13.35
2022-10-23T05:19:43.903Z,13.52
2022-10-23T05:22:11.263Z,15.68
2022-10-23T05:24:37.720Z,15.27
2022-10-23T05:27:04.260Z,11.35
2022-10-23T05:29:30.847Z,17.77
2022-10-23T05:32:00.103Z,17.38
2022-10-23T05:34:28.054Z,15.82
2022-10-23T05:36:54.901Z,11.80
2022-10-23T05:39:21.505Z,13.93
2022-10-23T05:41:48.028Z,9.98
2022-10-23T05:44:14.565Z,13.85
2022-10-23T05:46:44.294Z,11.38
2022-10-23T05:49:10.772Z,12.02
2022-10-23T05:51:38.827Z,16.42
2022-10-23T05:54:08.139Z,11.52
2022-10-23T05:56:39.120Z,10.75
2022-10-23T05:59:07.695Z,12.65
2022-10-23T06:01:34.343Z,16.50
2022-10-23T06:04:01.464Z,11.93
2022-10-23T06:06:27.928Z,13.38
2022-10-23T06:08:54.585Z,13.30
2022-10-23T06:11:21.045Z,16.85
2022-10-23T06:13:48.487Z,19.30
2022-10-23T06:16:17.813Z,14.55
2022-10-23T06:18:45.931Z,16.73
2022-10-23T06:21:12.808Z,14.80
2022-10-23T06:23:40.319Z,17.70
2022-10-23T06:26:08.611Z,17.08
2022-10-23T06:28:35.305Z,19.02
2022-10-23T06:31:09.463Z,18.00
2022-10-23T06:33:35.980Z,19.15
2022-10-23T06:36:03.632Z,16.90
2022-10-23T06:38:34.638Z,13.20
2022-10-23T06:41:01.106Z,17.38
2022-10-23T06:43:27.737Z,16.60
2022-10-23T06:45:54.457Z,15.85
2022-10-23T06:48:20.947Z,16.30
2022-10-23T06:50:47.490Z,16.80
2022-10-23T06:53:13.969Z,16.15
2022-10-23T06:55:40.614Z,17.23
2022-10-23T06:58:10.634Z,15.18
2022-10-23T07:00:40.053Z,14.15
2022-10-23T07:03:08.535Z,15.30
2022-10-23T07:05:35.146Z,19.48
2022-10-23T07:08:01.632Z,13.60
2022-10-23T07:10:28.126Z,13.30
2022-10-23T07:12:56.639Z,12.85
2022-10-23T07:15:23.103Z,19.65
2022-10-23T07:17:49.639Z,13.10
2022-10-23T07:20:16.171Z,12.23
2022-10-23T07:22:42.855Z,18.08
2022-10-23T07:25:09.593Z,14.00
2022-10-23T07:27:38.336Z,14.48
2022-10-23T07:30:05.209Z,11.90
2022-10-23T07:32:31.741Z,13.80
2022-10-23T07:34:58.274Z,11.13
2022-10-23T07:37:24.844Z,11.75
2022-10-23T07:39:51.315Z,14.05
2022-10-23T07:42:17.880Z,12.38
2022-10-23T07:44:44.359Z,12.35
2022-10-23T07:47:10.820Z,16.27
2022-10-23T07:49:37.330Z,11.27
2022-10-23T07:52:05.199Z,9.68
2022-10-23T07:54:31.941Z,11.80
2022-10-23T07:57:01.721Z,12.25
2022-10-23T07:59:28.243Z,11.85
2022-10-23T08:01:57.869Z,16.48
2022-10-23T08:04:25.101Z,10.07
2022-10-23T08:06:52.318Z,12.68
2022-10-23T08:09:18.949Z,10.93
2022-10-23T08:11:45.425Z,10.95
2022-10-23T08:14:11.916Z,15.07
2022-10-23T08:16:39.405Z,13.82
2022-10-23T08:19:07.518Z,11.60
2022-10-23T08:21:34.214Z,13.85
2022-10-23T08:24:00.949Z,13.75
2022-10-23T08:26:31.625Z,10.80
2022-10-23T08:28:59.167Z,12.27
2022-10-23T08:31:26.063Z,12.85
2022-10-23T08:33:52.831Z,14.68
2022-10-23T08:36:27.899Z,10.57
2022-10-23T08:38:56.048Z,11.82
2022-10-23T08:41:28.280Z,10.70
2022-10-23T08:44:02.712Z,9.43
2022-10-23T08:46:33.158Z,14.05
2022-10-23T08:52:34.647Z,12.55
2022-10-23T08:55:17.846Z,15.52
2022-10-23T08:57:55.757Z,13.25
2022-10-23T09:00:22.374Z,12.43
2022-10-23T09:02:51.617Z,12.00
2022-10-23T09:05:31.802Z,14.57
2022-10-23T09:08:11.715Z,8.63
2022-10-23T09:10:56.869Z,7.93
2022-10-23T09:13:48.554Z,9.30
2022-10-23T09:16:45.950Z,9.73
2022-10-23T09:19:16.919Z,8.98
2022-10-23T09:21:46.333Z,8.95
2022-10-23T09:24:18.341Z,8.68
2022-10-23T09:26:49.784Z,9.80
2022-10-23T09:29:32.785Z,11.35
2022-10-23T09:32:00.904Z,11.10
2022-10-23T09:34:30.073Z,12.95
2022-10-23T09:37:02.402Z,8.85
2022-10-23T09:39:34.963Z,11.32
2022-10-23T09:42:13.087Z,12.82
2022-10-23T09:44:48.264Z,9.50
2022-10-23T09:49:51.870Z,10.10
2022-10-23T09:52:18.336Z,8.52
2022-10-23T09:57:48.099Z,7.60
2022-10-23T10:00:14.965Z,10.65
2022-10-23T10:03:01.508Z,11.43
2022-10-23T10:05:29.438Z,7.93
2022-10-23T10:08:00.270Z,8.65
2022-10-23T10:10:29.774Z,11.80
2022-10-23T10:13:01.768Z,10.32
2022-10-23T10:15:35.470Z,15.45
2022-10-23T10:18:19.812Z,9.57
2022-10-23T10:21:04.982Z,11.30
2022-10-23T10:23:43.492Z,13.63
2022-10-23T10:26:19.164Z,11.45
2022-10-23T10:28:58.551Z,7.88
2022-10-23T10:31:57.026Z,9.57
2022-10-23T10:34:30.594Z,9.88
2022-10-23T10:37:10.276Z,11.95
2022-10-23T10:40:09.209Z,9.88
2022-10-23T10:42:46.398Z,13.57
2022-10-23T10:45:19.283Z,10.63
2022-10-23T10:47:51.667Z,8.80
2022-10-23T10:50:36.297Z,9.63
2022-10-23T10:53:22.319Z,10.87
2022-10-23T10:55:51.885Z,8.40
2022-10-23T10:58:43.396Z,9.45
2022-10-23T11:01:35.131Z,8.60
2022-10-23T11:04:13.038Z,10.55
2022-10-23T11:06:41.919Z,10.48
2022-10-23T11:09:20.554Z,9.18
2022-10-23T11:11:48.718Z,7.65
2022-10-23T11:14:24.138Z,11.55
2022-10-23T11:16:52.737Z,8.00
2022-10-23T11:19:29.368Z,8.05
2022-10-23T11:22:04.987Z,9.95
2022-10-23T11:24:58.231Z,7.95
2022-10-23T11:27:30.760Z,7.07
2022-10-23T11:30:25.979Z,9.65
2022-10-23T11:36:15.917Z,6.38
2022-10-23T11:38:45.048Z,10.98
2022-10-23T11:41:21.054Z,8.52
2022-10-23T11:44:01.722Z,11.35
2022-10-23T11:46:38.912Z,6.63
2022-10-23T11:49:19.103Z,10.57
2022-10-23T11:51:45.770Z,6.07
2022-10-23T11:54:13.492Z,9.40
2022-10-23T11:57:07.009Z,6.60
2022-10-23T11:59:44.836Z,5.45
2022-10-23T12:02:46.284Z,6.20
2022-10-23T12:05:37.816Z,6.70
2022-10-23T12:08:07.005Z,8.60
2022-10-23T12:10:35.518Z,6.70
2022-10-23T12:13:04.337Z,5.80
2022-10-23T12:15:32.840Z,10.70
2022-10-23T12:18:15.621Z,7.00
2022-10-23T12:20:57.599Z,9.23
2022-10-23T12:24:03.607Z,5.80
2022-10-23T12:26:50.699Z,7.55
2022-10-23T12:29:32.136Z,8.25
2022-10-23T12:32:04.765Z,6.18
2022-10-23T12:34:45.302Z,7.60
2022-10-23T12:37:24.024Z,7.10
2022-10-23T12:39:55.983Z,4.93
2022-10-23T12:42:24.551Z,7.88
2022-10-23T12:45:01.163Z,6.60
2022-10-23T12:47:28.674Z,6.85
2022-10-23T12:49:55.193Z,8.63
2022-10-23T12:52:24.513Z,7.53
2022-10-23T12:54:51.224Z,5.95
2022-10-23T12:57:30.111Z,9.55
2022-10-23T12:59:58.918Z,6.55
2022-10-23T13:02:28.273Z,6.13
2022-10-23T13:04:55.966Z,6.68
2022-10-23T13:07:28.270Z,9.38
2022-10-23T13:09:55.313Z,6.80
2022-10-23T13:12:27.635Z,12.05
2022-10-23T13:14:59.055Z,7.88
2022-10-23T13:20:42.077Z,4.13
2022-10-23T13:26:33.643Z,7.45
2022-10-23T13:29:07.343Z,7.47
2022-10-23T13:31:35.940Z,6.93
2022-10-23T13:34:02.387Z,11.00
2022-10-23T13:36:31.445Z,5.50
2022-10-23T13:39:11.681Z,5.82
2022-10-23T13:41:41.027Z,6.35
2022-10-23T13:44:09.132Z,5.30
2022-10-23T13:46:35.712Z,8.90
2022-10-23T13:49:02.209Z,7.55
2022-10-23T13:51:29.760Z,7.65
2022-10-23T13:53:57.347Z,5.53
2022-10-23T13:56:26.019Z,6.45
2022-10-23T13:58:52.839Z,6.25
2022-10-23T14:01:25.857Z,6.90
2022-10-23T14:03:54.037Z,4.95
2022-10-23T14:06:20.729Z,6.63
2022-10-23T14:08:47.536Z,9.32
2022-10-23T14:11:15.853Z,4.90
2022-10-23T14:13:42.473Z,8.15
2022-10-23T14:16:10.177Z,5.68
2022-10-23T14:18:36.683Z,6.22
2022-10-23T14:21:05.109Z,5.90
2022-10-23T14:23:31.581Z,6.15
2022-10-23T14:26:21.261Z,6.65
2022-10-23T14:28:47.982Z,7.03
2022-10-23T14:31:16.707Z,4.57
2022-10-23T14:33:44.827Z,7.43
2022-10-23T14:36:11.463Z,5.65
2022-10-23T14:38:38.072Z,7.30
2022-10-23T14:41:10.853Z,5.30
2022-10-23T14:43:37.613Z,6.07
2022-10-23T14:46:15.815Z,4.75
2022-10-23T14:48:46.078Z,6.30
2022-10-23T14:51:21.582Z,5.95
2022-10-23T14:53:48.927Z,6.53
2022-10-23T14:56:16.065Z,6.40
2022-10-23T14:58:43.348Z,6.00
2022-10-23T15:01:10.763Z,5.05
2022-10-23T15:03:37.560Z,11.00
2022-10-23T15:06:04.461Z,6.55
2022-10-23T15:08:31.228Z,8.63
2022-10-23T15:11:07.674Z,15.85
2022-10-23T15:13:36.755Z,7.22
2022-10-23T15:16:10.403Z,5.90
2022-10-23T15:21:09.011Z,6.65
2022-10-23T15:23:40.457Z,6.10
2022-10-23T15:26:11.318Z,7.18
2022-10-23T15:28:38.317Z,5.88
2022-10-23T15:31:05.561Z,4.78
2022-10-23T15:33:32.081Z,7.35
2022-10-23T15:35:58.557Z,7.75
2022-10-23T15:38:26.089Z,7.30
2022-10-23T15:40:54.360Z,4.45
2022-10-23T15:43:20.835Z,8.35
2022-10-23T15:45:47.321Z,7.20
2022-10-23T15:48:13.889Z,11.25
2022-10-23T15:50:40.378Z,7.03
2022-10-23T15:53:07.047Z,7.25
2022-10-23T15:55:33.784Z,8.25
2022-10-23T15:58:04.114Z,7.22
2022-10-23T16:00:30.857Z,7.32
2022-10-23T16:02:58.026Z,5.07
2022-10-23T16:05:24.583Z,14.20
2022-10-23T16:07:51.097Z,4.63
2022-10-23T16:10:18.790Z,8.27
2022-10-23T16:12:45.473Z,4.97
2022-10-23T16:15:12.319Z,7.88
2022-10-23T16:17:38.822Z,8.63
2022-10-23T16:20:05.805Z,6.00
2022-10-23T16:22:32.274Z,7.40
2022-10-23T16:24:58.752Z,7.70
2022-10-23T16:27:25.309Z,8.27
2022-10-23T16:29:51.858Z,9.15
2022-10-23T16:32:18.452Z,6.22
2022-10-23T16:34:45.446Z,6.25
2022-10-23T16:37:12.053Z,6.13
2022-10-23T16:39:38.623Z,7.20
2022-10-23T16:42:05.351Z,5.22
2022-10-23T16:44:31.979Z,8.63
2022-10-23T16:46:58.471Z,5.65
2022-10-23T16:49:25.060Z,5.63
2022-10-23T16:51:51.568Z,5.60
2022-10-23T16:54:18.053Z,7.22
2022-10-23T16:56:45.269Z,6.63
2022-10-23T16:59:11.742Z,5.10
2022-10-23T17:01:38.686Z,6.25
2022-10-23T17:04:06.352Z,5.20
2022-10-23T17:06:33.382Z,6.65
2022-10-23T17:09:01.239Z,11.25
2022-10-23T17:11:32.686Z,5.10
2022-10-23T17:14:02.072Z,8.95
2022-10-23T17:19:45.704Z,7.72
2022-10-23T17:22:13.263Z,5.97
2022-10-23T17:24:41.050Z,8.77
2022-10-23T17:27:07.864Z,7.93
2022-10-23T17:29:34.946Z,5.47
2022-10-23T17:32:01.501Z,7.55
2022-10-23T17:34:28.029Z,6.53
2022-10-23T17:36:55.542Z,6.75
2022-10-23T17:39:27.590Z,8.05
2022-10-23T17:41:55.071Z,9.25
2022-10-23T17:44:21.632Z,5.00
2022-10-23T17:46:53.644Z,8.70
2022-10-23T17:49:20.479Z,6.22
2022-10-23T17:51:51.576Z,6.03
2022-10-23T17:54:18.277Z,6.93
2022-10-23T17:56:46.130Z,7.63
2022-10-23T17:59:15.265Z,8.73
2022-10-23T18:01:46.458Z,6.82
2022-10-23T18:04:13.127Z,8.25
2022-10-23T18:06:45.226Z,6.32
2022-10-23T18:09:12.158Z,5.68
2022-10-23T18:11:45.331Z,7.70
2022-10-23T18:14:13.686Z,7.35
2022-10-23T18:16:40.875Z,8.50
2022-10-23T18:19:07.959Z,8.15
2022-10-23T18:21:35.786Z,9.60
2022-10-23T18:24:02.526Z,8.40
2022-10-23T18:26:30.636Z,7.45
2022-10-23T18:28:58.801Z,7.20
2022-10-23T18:31:27.467Z,9.40
2022-10-23T18:33:59.660Z,9.43
2022-10-23T18:36:29.095Z,14.75
2022-10-23T18:41:31.989Z,11.98
2022-10-23T18:43:58.520Z,10.82
2022-10-23T18:46:25.000Z,9.25
2022-10-23T18:48:51.518Z,13.43
2022-10-23T18:51:19.872Z,8.23
2022-10-23T18:53:46.894Z,6.97
2022-10-23T18:56:14.793Z,8.35
2022-10-23T18:58:41.507Z,5.78
2022-10-23T19:01:08.171Z,9.40
2022-10-23T19:03:34.777Z,6.68
2022-10-23T19:06:01.308Z,6.07
2022-10-23T19:08:28.764Z,5.88
2022-10-23T19:10:57.565Z,7.72
2022-10-23T19:13:24.187Z,5.15
2022-10-23T19:15:50.997Z,7.60
2022-10-23T19:18:17.545Z,6.18
2022-10-23T19:20:44.174Z,7.90
2022-10-23T19:23:12.841Z,5.80
2022-10-23T19:25:45.309Z,6.72
2022-10-23T19:28:11.953Z,4.45
2022-10-23T19:30:39.595Z,5.78
2022-10-23T19:33:06.280Z,8.65
2022-10-23T19:35:32.751Z,4.88
2022-10-23T19:37:59.339Z,3.85
2022-10-23T19:40:25.986Z,2.08
2022-10-23T19:42:54.233Z,2.47
2022-10-23T19:45:20.888Z,2.67
2022-10-23T19:47:47.943Z,4.82
2022-10-23T19:50:14.669Z,2.92
2022-10-23T19:52:41.235Z,5.30
2022-10-23T19:55:08.939Z,4.35
2022-10-23T19:57:35.504Z,5.43
2022-10-23T20:00:02.391Z,3.80
2022-10-23T20:02:29.099Z,5.57
2022-10-23T20:04:55.765Z,4.20
2022-10-23T20:07:22.409Z,4.18
2022-10-23T20:09:49.054Z,2.65
2022-10-23T20:12:15.600Z,8.25
2022-10-23T20:14:42.146Z,4.63
2022-10-23T20:17:08.700Z,5.45
2022-10-23T20:19:35.256Z,2.05
2022-10-23T20:22:01.880Z,4.47
2022-10-23T20:24:28.406Z,2.72
2022-10-23T20:26:55.681Z,6.22
2022-10-23T20:29:22.862Z,4.00
2022-10-23T20:31:49.377Z,4.68
2022-10-23T20:34:16.019Z,7.07
2022-10-23T20:36:46.698Z,9.27
2022-10-23T20:39:17.550Z,4.97
2022-10-23T20:41:45.220Z,8.02
2022-10-23T20:44:13.897Z,5.47
2022-10-23T20:46:40.738Z,7.20
2022-10-23T20:49:07.542Z,5.60
2022-10-23T20:51:35.776Z,7.68
2022-10-23T20:54:02.293Z,6.50
2022-10-23T20:56:31.454Z,6.07
2022-10-23T20:59:07.020Z,6.95
2022-10-23T21:01:34.599Z,7.38
2022-10-23T21:04:02.318Z,3.70
2022-10-23T21:06:40.981Z,5.47
2022-10-23T21:09:17.219Z,5.47
2022-10-23T21:11:43.775Z,5.40
2022-10-23T21:14:10.262Z,7.90
2022-10-23T21:16:40.845Z,6.43
2022-10-23T21:19:14.004Z,4.50
2022-10-23T21:21:40.518Z,3.53
2022-10-23T21:24:10.127Z,7.85
2022-10-23T21:26:36.837Z,5.25
2022-10-23T21:29:20.005Z,7.50
2022-10-23T21:31:58.569Z,8.20
2022-10-23T21:34:25.862Z,5.43
2022-10-23T21:39:39.244Z,6.68
2022-10-23T21:42:05.864Z,3.88
2022-10-23T21:44:32.501Z,3.38
2022-10-23T21:46:58.988Z,7.75
2022-10-23T21:49:25.458Z,5.32
2022-10-23T21:51:52.109Z,3.83
2022-10-23T21:54:18.600Z,6.20
2022-10-23T21:56:47.895Z,7.20
2022-10-23T21:59:17.280Z,7.72
2022-10-23T22:01:45.304Z,6.60
2022-10-23T22:04:14.081Z,5.38
2022-10-23T22:06:41.541Z,3.95
2022-10-23T22:09:08.621Z,6.60
2022-10-23T22:11:35.291Z,3.88
2022-10-23T22:14:01.829Z,5.15
2022-10-23T22:16:28.377Z,6.78
2022-10-23T22:18:55.061Z,9.23
2022-10-23T22:21:23.983Z,3.42
2022-10-23T22:23:51.354Z,5.28
2022-10-23T22:26:22.346Z,4.90
2022-10-23T22:28:50.658Z,6.18
2022-10-23T22:31:25.694Z,6.63
2022-10-23T22:33:53.067Z,6.13
2022-10-23T22:36:20.374Z,6.00
2022-10-23T22:38:47.355Z,9.05
2022-10-23T22:41:14.347Z,4.90
2022-10-23T22:43:40.975Z,4.80
2022-10-23T22:46:09.989Z,6.45
2022-10-23T22:48:36.993Z,13.38
2022-10-23T22:51:06.310Z,3.88
2022-10-23T22:53:35.054Z,5.00
2022-10-23T22:56:01.544Z,4.15
2022-10-23T22:58:28.003Z,6.50
2022-10-23T23:01:07.166Z,5.20
2022-10-23T23:03:35.987Z,6.15
2022-10-23T23:06:04.906Z,5.65
2022-10-23T23:08:31.473Z,4.32
2022-10-23T23:10:58.549Z,5.13
2022-10-23T23:13:25.955Z,9.95
2022-10-23T23:15:52.692Z,4.00
2022-10-23T23:18:19.353Z,6.35
2022-10-23T23:20:45.896Z,8.95
2022-10-23T23:23:14.173Z,7.40
2022-10-23T23:25:46.145Z,5.90
2022-10-23T23:28:16.776Z,6.72
2022-10-23T23:30:43.891Z,8.32
2022-10-23T23:33:12.053Z,11.57
2022-10-23T23:35:43.419Z,9.10
2022-10-23T23:38:10.971Z,7.28
2022-10-23T23:40:38.374Z,7.18
2022-10-23T23:43:05.200Z,7.53
2022-10-23T23:45:31.933Z,5.50
2022-10-23T23:47:58.702Z,5.45
2022-10-23T23:50:26.164Z,11.32
2022-10-23T23:52:52.773Z,8.63
2022-10-23T23:55:19.340Z,9.00
2022-10-23T23:57:45.941Z,8.02
